sensor_id;sensor_type;location;lat;lon;timestamp;temperature;humidity
19680;DHT22;9989;48.962;9.182;2022-12-13T00:01:35;-1.50;99.90
19680;DHT22;9989;48.962;9.182;2022-12-13T00:04:03;-1.50;99.90
19680;DHT22;9989;48.962;9.182;2022-12-13T00:06:30;-1.50;99.90
19680;DHT22;9989;48.962;9.182;2022-12-13T00:08:56;-1.60;99.90
19680;DHT22;9989;48.962;9.182;2022-12-13T00:11:22;-1.60;99.90
19680;DHT22;9989;48.962;9.182;2022-12-13T00:13:47;-1.60;99.90
19680;DHT22;9989;48.962;9.182;2022-12-13T00:16:18;-1.70;99.90
19680;DHT22;9989;48.962;9.182;2022-12-13T00:18:48;-1.70;99.90
19680;DHT22;9989;48.962;9.182;2022-12-13T00:21:17;-1.70;99.90
19680;DHT22;9989;48.962;9.182;2022-12-13T00:23:43;-1.70;99.90
19680;DHT22;9989;48.962;9.182;2022-12-13T00:26:20;-1.80;99.90
19680;DHT22;9989;48.962;9.182;2022-12-13T00:28:46;-1.80;99.90
19680;DHT22;9989;48.962;9.182;2022-12-13T00:31:14;-1.70;99.90
19680;DHT22;9989;48.962;9.182;2022-12-13T00:33:40;-1.70;99.90
19680;DHT22;9989;48.962;9.182;2022-12-13T00:36:06;-1.80;99.90
19680;DHT22;9989;48.962;9.182;2022-12-13T00:38:33;-1.80;99.90
19680;DHT22;9989;48.962;9.182;2022-12-13T00:40:58;-1.80;99.90
19680;DHT22;9989;48.962;9.182;2022-12-13T00:43:24;-1.90;99.90
19680;DHT22;9989;48.962;9.182;2022-12-13T00:45:50;-1.90;99.90
19680;DHT22;9989;48.962;9.182;2022-12-13T00:48:15;-1.90;99.90
19680;DHT22;9989;48.962;9.182;2022-12-13T00:50:41;-2.00;99.90
19680;DHT22;9989;48.962;9.182;2022-12-13T00:53:06;-2.00;99.90
19680;DHT22;9989;48.962;9.182;2022-12-13T00:55:32;-2.00;99.90
19680;DHT22;9989;48.962;9.182;2022-12-13T00:57:57;-2.00;99.90
19680;DHT22;9989;48.962;9.182;2022-12-13T01:00:24;-1.90;99.90
19680;DHT22;9989;48.962;9.182;2022-12-13T01:02:51;-1.90;99.90
19680;DHT22;9989;48.962;9.182;2022-12-13T01:05:17;-2.00;99.90
19680;DHT22;9989;48.962;9.182;2022-12-13T01:07:43;-2.00;99.90
19680;DHT22;9989;48.962;9.182;2022-12-13T01:10:11;-2.00;99.90
19680;DHT22;9989;48.962;9.182;2022-12-13T01:12:37;-2.10;99.90
19680;DHT22;9989;48.962;9.182;2022-12-13T01:15:03;-2.10;99.90
19680;DHT22;9989;48.962;9.182;2022-12-13T01:17:29;-2.10;99.90
19680;DHT22;9989;48.962;9.182;2022-12-13T01:19:55;-2.10;99.90
19680;DHT22;9989;48.962;9.182;2022-12-13T01:22:20;-2.10;99.90
19680;DHT22;9989;48.962;9.182;2022-12-13T01:24:46;-2.20;99.90
19680;DHT22;9989;48.962;9.182;2022-12-13T01:27:12;-2.10;99.90
19680;DHT22;9989;48.962;9.182;2022-12-13T01:29:37;-2.20;99.90
19680;DHT22;9989;48.962;9.182;2022-12-13T01:32:03;-2.20;99.90
19680;DHT22;9989;48.962;9.182;2022-12-13T01:34:29;-2.20;99.90
19680;DHT22;9989;48.962;9.182;2022-12-13T01:36:55;-2.20;99.90
19680;DHT22;9989;48.962;9.182;2022-12-13T01:39:21;-2.30;99.90
19680;DHT22;9989;48.962;9.182;2022-12-13T01:41:50;-2.30;99.90
19680;DHT22;9989;48.962;9.182;2022-12-13T01:44:57;-2.20;99.90
19680;DHT22;9989;48.962;9.182;2022-12-13T01:47:40;-2.20;99.90
19680;DHT22;9989;48.962;9.182;2022-12-13T01:50:13;-2.30;99.90
19680;DHT22;9989;48.962;9.182;2022-12-13T01:52:40;-2.20;99.90
19680;DHT22;9989;48.962;9.182;2022-12-13T01:55:07;-2.30;99.90
19680;DHT22;9989;48.962;9.182;2022-12-13T01:57:36;-2.30;99.90
19680;DHT22;9989;48.962;9.182;2022-12-13T02:00:04;-2.30;99.90
19680;DHT22;9989;48.962;9.182;2022-12-13T02:02:32;-2.30;99.90
19680;DHT22;9989;48.962;9.182;2022-12-13T02:05:04;-2.30;99.90
19680;DHT22;9989;48.962;9.182;2022-12-13T02:07:32;-2.40;99.90
19680;DHT22;9989;48.962;9.182;2022-12-13T02:10:02;-2.40;99.90
19680;DHT22;9989;48.962;9.182;2022-12-13T02:12:30;-2.40;99.90
19680;DHT22;9989;48.962;9.182;2022-12-13T02:15:05;-2.40;99.90
19680;DHT22;9989;48.962;9.182;2022-12-13T02:17:52;-2.40;99.90
19680;DHT22;9989;48.962;9.182;2022-12-13T02:31:09;-2.40;99.90
19680;DHT22;9989;48.962;9.182;2022-12-13T02:33:52;-2.50;99.90
19680;DHT22;9989;48.962;9.182;2022-12-13T02:36:28;-2.50;99.90
19680;DHT22;9989;48.962;9.182;2022-12-13T02:38:58;-2.50;99.90
19680;DHT22;9989;48.962;9.182;2022-12-13T02:41:32;-2.50;99.90
19680;DHT22;9989;48.962;9.182;2022-12-13T02:44:09;-2.50;99.90
19680;DHT22;9989;48.962;9.182;2022-12-13T02:46:43;-2.60;99.90
19680;DHT22;9989;48.962;9.182;2022-12-13T02:49:14;-2.60;99.90
19680;DHT22;9989;48.962;9.182;2022-12-13T02:51:42;-2.60;99.90
19680;DHT22;9989;48.962;9.182;2022-12-13T02:54:09;-2.70;99.90
19680;DHT22;9989;48.962;9.182;2022-12-13T02:56:34;-2.70;99.90
19680;DHT22;9989;48.962;9.182;2022-12-13T02:59:02;-2.70;99.90
19680;DHT22;9989;48.962;9.182;2022-12-13T03:04:32;-2.70;99.90
19680;DHT22;9989;48.962;9.182;2022-12-13T03:07:28;-2.70;99.90
19680;DHT22;9989;48.962;9.182;2022-12-13T03:10:05;-2.70;99.90
19680;DHT22;9989;48.962;9.182;2022-12-13T03:12:55;-2.70;99.90
19680;DHT22;9989;48.962;9.182;2022-12-13T03:15:46;-2.70;99.90
19680;DHT22;9989;48.962;9.182;2022-12-13T03:18:21;-2.70;99.90
19680;DHT22;9989;48.962;9.182;2022-12-13T03:20:55;-2.70;99.90
19680;DHT22;9989;48.962;9.182;2022-12-13T03:23:22;-2.70;99.90
19680;DHT22;9989;48.962;9.182;2022-12-13T03:25:51;-2.70;99.90
19680;DHT22;9989;48.962;9.182;2022-12-13T03:28:17;-2.70;99.90
19680;DHT22;9989;48.962;9.182;2022-12-13T03:30:43;-2.70;99.90
19680;DHT22;9989;48.962;9.182;2022-12-13T03:33:08;-2.70;99.90
19680;DHT22;9989;48.962;9.182;2022-12-13T03:35:34;-2.60;99.90
19680;DHT22;9989;48.962;9.182;2022-12-13T03:38:01;-2.60;99.90
19680;DHT22;9989;48.962;9.182;2022-12-13T03:40:30;-2.70;99.90
19680;DHT22;9989;48.962;9.182;2022-12-13T03:42:57;-2.70;99.90
19680;DHT22;9989;48.962;9.182;2022-12-13T03:45:22;-2.70;99.90
19680;DHT22;9989;48.962;9.182;2022-12-13T03:47:48;-2.70;99.90
19680;DHT22;9989;48.962;9.182;2022-12-13T03:50:13;-2.70;99.90
19680;DHT22;9989;48.962;9.182;2022-12-13T03:52:39;-2.70;99.90
19680;DHT22;9989;48.962;9.182;2022-12-13T03:55:05;-2.70;99.90
19680;DHT22;9989;48.962;9.182;2022-12-13T03:57:30;-2.70;99.90
19680;DHT22;9989;48.962;9.182;2022-12-13T03:59:56;-2.70;99.90
19680;DHT22;9989;48.962;9.182;2022-12-13T04:02:21;-2.70;99.90
19680;DHT22;9989;48.962;9.182;2022-12-13T04:04:47;-2.70;99.90
19680;DHT22;9989;48.962;9.182;2022-12-13T04:07:13;-2.70;99.90
19680;DHT22;9989;48.962;9.182;2022-12-13T04:09:38;-2.80;99.90
19680;DHT22;9989;48.962;9.182;2022-12-13T04:12:04;-2.80;99.90
19680;DHT22;9989;48.962;9.182;2022-12-13T04:14:48;-2.80;99.90
19680;DHT22;9989;48.962;9.182;2022-12-13T04:17:14;-2.90;99.90
19680;DHT22;9989;48.962;9.182;2022-12-13T04:19:39;-2.90;99.90
19680;DHT22;9989;48.962;9.182;2022-12-13T04:22:05;-2.90;99.90
19680;DHT22;9989;48.962;9.182;2022-12-13T04:24:30;-2.90;99.90
19680;DHT22;9989;48.962;9.182;2022-12-13T04:26:56;-2.90;99.90
19680;DHT22;9989;48.962;9.182;2022-12-13T04:29:21;-2.90;99.90
19680;DHT22;9989;48.962;9.182;2022-12-13T04:31:47;-2.80;99.90
19680;DHT22;9989;48.962;9.182;2022-12-13T04:34:13;-2.90;99.90
19680;DHT22;9989;48.962;9.182;2022-12-13T04:36:38;-2.80;99.90
19680;DHT22;9989;48.962;9.182;2022-12-13T04:39:04;-2.80;99.90
19680;DHT22;9989;48.962;9.182;2022-12-13T04:41:35;-2.80;99.90
19680;DHT22;9989;48.962;9.182;2022-12-13T04:44:06;-2.80;99.90
19680;DHT22;9989;48.962;9.182;2022-12-13T04:46:32;-2.80;99.90
19680;DHT22;9989;48.962;9.182;2022-12-13T04:48:57;-2.80;99.90
19680;DHT22;9989;48.962;9.182;2022-12-13T04:51:23;-2.90;99.90
19680;DHT22;9989;48.962;9.182;2022-12-13T04:53:49;-2.90;99.90
19680;DHT22;9989;48.962;9.182;2022-12-13T04:56:15;-2.90;99.90
19680;DHT22;9989;48.962;9.182;2022-12-13T04:58:40;-2.90;99.90
19680;DHT22;9989;48.962;9.182;2022-12-13T05:01:10;-3.00;99.90
19680;DHT22;9989;48.962;9.182;2022-12-13T05:03:37;-3.00;99.90
19680;DHT22;9989;48.962;9.182;2022-12-13T05:06:08;-3.00;99.90
19680;DHT22;9989;48.962;9.182;2022-12-13T05:08:35;-3.10;99.90
19680;DHT22;9989;48.962;9.182;2022-12-13T05:11:02;-3.10;99.90
19680;DHT22;9989;48.962;9.182;2022-12-13T05:13:30;-3.10;99.90
19680;DHT22;9989;48.962;9.182;2022-12-13T05:16:00;-3.20;99.90
19680;DHT22;9989;48.962;9.182;2022-12-13T05:18:28;-3.30;99.90
19680;DHT22;9989;48.962;9.182;2022-12-13T05:20:53;-3.40;99.90
19680;DHT22;9989;48.962;9.182;2022-12-13T05:23:21;-3.40;99.90
19680;DHT22;9989;48.962;9.182;2022-12-13T05:25:48;-3.50;99.90
19680;DHT22;9989;48.962;9.182;2022-12-13T05:28:13;-3.60;99.90
19680;DHT22;9989;48.962;9.182;2022-12-13T05:30:40;-3.60;99.90
19680;DHT22;9989;48.962;9.182;2022-12-13T05:33:06;-3.60;99.90
19680;DHT22;9989;48.962;9.182;2022-12-13T05:35:32;-3.60;99.90
19680;DHT22;9989;48.962;9.182;2022-12-13T05:37:58;-3.60;99.90
19680;DHT22;9989;48.962;9.182;2022-12-13T05:40:25;-3.70;99.90
19680;DHT22;9989;48.962;9.182;2022-12-13T05:42:51;-3.70;99.90
19680;DHT22;9989;48.962;9.182;2022-12-13T05:45:17;-3.70;99.90
19680;DHT22;9989;48.962;9.182;2022-12-13T05:47:43;-3.80;99.90
19680;DHT22;9989;48.962;9.182;2022-12-13T05:50:09;-3.80;99.90
19680;DHT22;9989;48.962;9.182;2022-12-13T05:52:35;-3.80;99.90
19680;DHT22;9989;48.962;9.182;2022-12-13T05:55:01;-3.80;99.90
19680;DHT22;9989;48.962;9.182;2022-12-13T05:57:27;-3.80;99.90
19680;DHT22;9989;48.962;9.182;2022-12-13T05:59:52;-3.80;99.90
19680;DHT22;9989;48.962;9.182;2022-12-13T06:02:18;-3.80;99.90
19680;DHT22;9989;48.962;9.182;2022-12-13T06:04:44;-3.70;99.90
19680;DHT22;9989;48.962;9.182;2022-12-13T06:07:10;-3.70;99.90
19680;DHT22;9989;48.962;9.182;2022-12-13T06:09:36;-3.70;99.90
19680;DHT22;9989;48.962;9.182;2022-12-13T06:12:04;-3.70;99.90
19680;DHT22;9989;48.962;9.182;2022-12-13T06:14:30;-3.70;99.90
19680;DHT22;9989;48.962;9.182;2022-12-13T06:16:55;-3.70;99.90
19680;DHT22;9989;48.962;9.182;2022-12-13T06:19:21;-3.60;99.90
19680;DHT22;9989;48.962;9.182;2022-12-13T06:21:48;-3.60;99.90
19680;DHT22;9989;48.962;9.182;2022-12-13T06:24:15;-3.60;99.90
19680;DHT22;9989;48.962;9.182;2022-12-13T06:26:41;-3.50;99.90
19680;DHT22;9989;48.962;9.182;2022-12-13T06:29:07;-3.50;99.90
19680;DHT22;9989;48.962;9.182;2022-12-13T06:31:32;-3.50;99.90
19680;DHT22;9989;48.962;9.182;2022-12-13T06:34:02;-3.50;99.90
19680;DHT22;9989;48.962;9.182;2022-12-13T06:36:27;-3.40;99.90
19680;DHT22;9989;48.962;9.182;2022-12-13T06:38:53;-3.40;99.90
19680;DHT22;9989;48.962;9.182;2022-12-13T06:41:19;-3.40;99.90
19680;DHT22;9989;48.962;9.182;2022-12-13T06:43:45;-3.40;99.90
19680;DHT22;9989;48.962;9.182;2022-12-13T06:46:11;-3.40;99.90
19680;DHT22;9989;48.962;9.182;2022-12-13T06:48:37;-3.40;99.90
19680;DHT22;9989;48.962;9.182;2022-12-13T06:51:06;-3.50;99.90
19680;DHT22;9989;48.962;9.182;2022-12-13T06:53:31;-3.50;99.90
19680;DHT22;9989;48.962;9.182;2022-12-13T06:56:06;-3.50;99.90
19680;DHT22;9989;48.962;9.182;2022-12-13T06:58:33;-3.50;99.90
19680;DHT22;9989;48.962;9.182;2022-12-13T07:01:03;-3.50;99.90
19680;DHT22;9989;48.962;9.182;2022-12-13T07:03:29;-3.50;99.90
19680;DHT22;9989;48.962;9.182;2022-12-13T07:05:57;-3.50;99.90
19680;DHT22;9989;48.962;9.182;2022-12-13T07:08:23;-3.50;99.90
19680;DHT22;9989;48.962;9.182;2022-12-13T07:10:49;-3.40;99.90
19680;DHT22;9989;48.962;9.182;2022-12-13T07:13:15;-3.40;99.90
19680;DHT22;9989;48.962;9.182;2022-12-13T07:15:41;-3.30;99.90
19680;DHT22;9989;48.962;9.182;2022-12-13T07:18:06;-3.30;99.90
19680;DHT22;9989;48.962;9.182;2022-12-13T07:20:32;-3.30;99.90
19680;DHT22;9989;48.962;9.182;2022-12-13T07:22:57;-3.30;99.90
19680;DHT22;9989;48.962;9.182;2022-12-13T07:25:23;-3.00;99.90
19680;DHT22;9989;48.962;9.182;2022-12-13T07:27:58;-2.70;99.90
19680;DHT22;9989;48.962;9.182;2022-12-13T07:30:23;-2.20;99.90
19680;DHT22;9989;48.962;9.182;2022-12-13T07:32:49;-1.80;99.90
19680;DHT22;9989;48.962;9.182;2022-12-13T07:35:15;-1.30;99.90
19680;DHT22;9989;48.962;9.182;2022-12-13T07:37:40;-0.80;99.90
19680;DHT22;9989;48.962;9.182;2022-12-13T07:40:06;-0.30;99.90
19680;DHT22;9989;48.962;9.182;2022-12-13T07:42:32;0.40;99.90
19680;DHT22;9989;48.962;9.182;2022-12-13T07:44:58;0.90;99.90
19680;DHT22;9989;48.962;9.182;2022-12-13T07:47:30;1.40;99.90
19680;DHT22;9989;48.962;9.182;2022-12-13T07:49:56;2.10;99.90
19680;DHT22;9989;48.962;9.182;2022-12-13T07:52:22;2.70;99.90
19680;DHT22;9989;48.962;9.182;2022-12-13T07:54:48;3.30;99.90
19680;DHT22;9989;48.962;9.182;2022-12-13T07:57:13;3.90;99.30
19680;DHT22;9989;48.962;9.182;2022-12-13T07:59:39;4.40;97.50
19680;DHT22;9989;48.962;9.182;2022-12-13T08:02:06;4.80;95.90
19680;DHT22;9989;48.962;9.182;2022-12-13T08:04:31;5.10;93.80
19680;DHT22;9989;48.962;9.182;2022-12-13T08:06:57;5.20;92.70
19680;DHT22;9989;48.962;9.182;2022-12-13T08:09:22;5.30;91.60
19680;DHT22;9989;48.962;9.182;2022-12-13T08:11:48;5.30;90.90
19680;DHT22;9989;48.962;9.182;2022-12-13T08:14:13;5.40;90.40
19680;DHT22;9989;48.962;9.182;2022-12-13T08:16:39;5.70;89.90
19680;DHT22;9989;48.962;9.182;2022-12-13T08:19:05;5.90;88.40
19680;DHT22;9989;48.962;9.182;2022-12-13T08:21:34;6.10;87.10
19680;DHT22;9989;48.962;9.182;2022-12-13T08:24:00;6.30;85.30
19680;DHT22;9989;48.962;9.182;2022-12-13T08:26:27;6.50;84.00
19680;DHT22;9989;48.962;9.182;2022-12-13T08:28:52;6.80;82.80
19680;DHT22;9989;48.962;9.182;2022-12-13T08:31:18;7.10;81.50
19680;DHT22;9989;48.962;9.182;2022-12-13T08:33:43;7.30;79.90
19680;DHT22;9989;48.962;9.182;2022-12-13T08:36:13;7.50;78.90
19680;DHT22;9989;48.962;9.182;2022-12-13T08:38:43;7.70;77.40
19680;DHT22;9989;48.962;9.182;2022-12-13T08:41:10;7.80;76.30
19680;DHT22;9989;48.962;9.182;2022-12-13T08:43:36;7.80;75.80
19680;DHT22;9989;48.962;9.182;2022-12-13T08:46:02;7.90;75.40
19680;DHT22;9989;48.962;9.182;2022-12-13T08:48:27;8.10;75.10
19680;DHT22;9989;48.962;9.182;2022-12-13T08:50:53;8.50;74.30
19680;DHT22;9989;48.962;9.182;2022-12-13T08:53:19;9.00;72.50
19680;DHT22;9989;48.962;9.182;2022-12-13T08:55:44;9.60;70.50
19680;DHT22;9989;48.962;9.182;2022-12-13T08:58:10;10.30;68.60
19680;DHT22;9989;48.962;9.182;2022-12-13T09:00:36;11.00;65.50
19680;DHT22;9989;48.962;9.182;2022-12-13T09:03:05;11.60;63.60
19680;DHT22;9989;48.962;9.182;2022-12-13T09:05:31;12.20;61.50
19680;DHT22;9989;48.962;9.182;2022-12-13T09:07:58;12.70;58.50
19680;DHT22;9989;48.962;9.182;2022-12-13T09:10:24;13.10;57.00
19680;DHT22;9989;48.962;9.182;2022-12-13T09:12:50;13.00;55.40
19680;DHT22;9989;48.962;9.182;2022-12-13T09:15:15;12.50;55.00
19680;DHT22;9989;48.962;9.182;2022-12-13T09:17:41;11.50;55.70
19680;DHT22;9989;48.962;9.182;2022-12-13T09:20:08;10.50;56.90
19680;DHT22;9989;48.962;9.182;2022-12-13T09:22:35;9.50;58.50
19680;DHT22;9989;48.962;9.182;2022-12-13T09:25:02;8.80;60.40
19680;DHT22;9989;48.962;9.182;2022-12-13T09:27:28;8.50;61.80
19680;DHT22;9989;48.962;9.182;2022-12-13T09:29:54;8.50;62.00
19680;DHT22;9989;48.962;9.182;2022-12-13T09:32:20;8.60;62.80
19680;DHT22;9989;48.962;9.182;2022-12-13T09:34:46;9.10;62.10
19680;DHT22;9989;48.962;9.182;2022-12-13T09:37:11;9.60;61.30
19680;DHT22;9989;48.962;9.182;2022-12-13T09:39:38;10.20;59.50
19680;DHT22;9989;48.962;9.182;2022-12-13T09:42:04;10.60;58.50
19680;DHT22;9989;48.962;9.182;2022-12-13T09:44:38;10.90;57.70
19680;DHT22;9989;48.962;9.182;2022-12-13T09:47:12;11.10;56.50
19680;DHT22;9989;48.962;9.182;2022-12-13T09:49:40;11.40;56.40
19680;DHT22;9989;48.962;9.182;2022-12-13T09:52:13;11.50;55.50
19680;DHT22;9989;48.962;9.182;2022-12-13T09:54:39;11.80;55.00
19680;DHT22;9989;48.962;9.182;2022-12-13T09:57:18;11.90;54.70
19680;DHT22;9989;48.962;9.182;2022-12-13T09:59:44;12.00;54.00
19680;DHT22;9989;48.962;9.182;2022-12-13T10:02:29;12.10;53.40
19680;DHT22;9989;48.962;9.182;2022-12-13T10:07:39;12.40;53.40
19680;DHT22;9989;48.962;9.182;2022-12-13T10:10:05;12.60;53.80
19680;DHT22;9989;48.962;9.182;2022-12-13T10:12:32;12.60;52.50
19680;DHT22;9989;48.962;9.182;2022-12-13T10:15:00;12.60;51.90
19680;DHT22;9989;48.962;9.182;2022-12-13T10:17:35;12.40;51.90
19680;DHT22;9989;48.962;9.182;2022-12-13T10:20:03;12.30;52.20
19680;DHT22;9989;48.962;9.182;2022-12-13T10:22:30;12.20;52.50
19680;DHT22;9989;48.962;9.182;2022-12-13T10:27:42;11.80;52.00
19680;DHT22;9989;48.962;9.182;2022-12-13T10:30:40;11.60;52.60
19680;DHT22;9989;48.962;9.182;2022-12-13T10:33:25;11.50;52.60
19680;DHT22;9989;48.962;9.182;2022-12-13T10:38:29;11.70;52.20
19680;DHT22;9989;48.962;9.182;2022-12-13T10:40:56;11.90;52.30
19680;DHT22;9989;48.962;9.182;2022-12-13T10:43:25;12.20;52.40
19680;DHT22;9989;48.962;9.182;2022-12-13T10:51:09;12.50;50.80
19680;DHT22;9989;48.962;9.182;2022-12-13T10:53:39;12.20;50.80
19680;DHT22;9989;48.962;9.182;2022-12-13T10:56:05;12.00;51.20
19680;DHT22;9989;48.962;9.182;2022-12-13T10:58:38;11.80;51.70
19680;DHT22;9989;48.962;9.182;2022-12-13T11:01:18;11.80;52.10
19680;DHT22;9989;48.962;9.182;2022-12-13T11:04:04;11.90;52.00
19680;DHT22;9989;48.962;9.182;2022-12-13T11:06:44;12.10;51.90
19680;DHT22;9989;48.962;9.182;2022-12-13T11:09:47;12.30;51.60
19680;DHT22;9989;48.962;9.182;2022-12-13T11:12:35;12.40;51.40
19680;DHT22;9989;48.962;9.182;2022-12-13T11:15:04;12.60;51.50
19680;DHT22;9989;48.962;9.182;2022-12-13T11:17:34;12.80;51.10
19680;DHT22;9989;48.962;9.182;2022-12-13T11:20:06;12.80;50.20
19680;DHT22;9989;48.962;9.182;2022-12-13T11:22:36;12.80;50.20
19680;DHT22;9989;48.962;9.182;2022-12-13T11:25:22;12.60;49.70
19680;DHT22;9989;48.962;9.182;2022-12-13T11:28:03;12.40;50.10
19680;DHT22;9989;48.962;9.182;2022-12-13T11:36:16;11.60;51.90
19680;DHT22;9989;48.962;9.182;2022-12-13T11:44:05;11.00;52.40
19680;DHT22;9989;48.962;9.182;2022-12-13T11:46:54;10.80;53.40
19680;DHT22;9989;48.962;9.182;2022-12-13T11:49:31;10.60;53.20
19680;DHT22;9989;48.962;9.182;2022-12-13T11:52:03;10.60;53.50
19680;DHT22;9989;48.962;9.182;2022-12-13T11:54:48;10.60;53.30
19680;DHT22;9989;48.962;9.182;2022-12-13T11:57:45;10.60;53.40
19680;DHT22;9989;48.962;9.182;2022-12-13T12:05:36;10.30;54.20
19680;DHT22;9989;48.962;9.182;2022-12-13T12:08:14;10.30;54.60
19680;DHT22;9989;48.962;9.182;2022-12-13T12:10:43;10.20;54.40
19680;DHT22;9989;48.962;9.182;2022-12-13T12:18:38;10.30;54.70
19680;DHT22;9989;48.962;9.182;2022-12-13T12:21:18;10.50;54.70
19680;DHT22;9989;48.962;9.182;2022-12-13T12:26:20;10.90;53.90
19680;DHT22;9989;48.962;9.182;2022-12-13T12:29:37;11.00;53.60
19680;DHT22;9989;48.962;9.182;2022-12-13T12:51:51;10.60;54.00
19680;DHT22;9989;48.962;9.182;2022-12-13T13:00:12;11.40;53.30
19680;DHT22;9989;48.962;9.182;2022-12-13T13:08:03;12.40;51.90
19680;DHT22;9989;48.962;9.182;2022-12-13T13:10:31;12.70;51.50
19680;DHT22;9989;48.962;9.182;2022-12-13T13:12:57;12.70;51.20
19680;DHT22;9989;48.962;9.182;2022-12-13T13:18:00;12.60;51.70
19680;DHT22;9989;48.962;9.182;2022-12-13T13:20:28;12.60;51.70
19680;DHT22;9989;48.962;9.182;2022-12-13T13:22:55;12.50;51.40
19680;DHT22;9989;48.962;9.182;2022-12-13T13:25:28;12.20;51.50
19680;DHT22;9989;48.962;9.182;2022-12-13T13:30:27;11.20;52.80
19680;DHT22;9989;48.962;9.182;2022-12-13T13:32:55;10.60;53.70
19680;DHT22;9989;48.962;9.182;2022-12-13T13:38:26;9.50;55.30
19680;DHT22;9989;48.962;9.182;2022-12-13T13:40:52;9.00;56.50
19680;DHT22;9989;48.962;9.182;2022-12-13T13:43:28;8.50;57.40
19680;DHT22;9989;48.962;9.182;2022-12-13T13:45:58;8.00;58.60
19680;DHT22;9989;48.962;9.182;2022-12-13T13:54:17;6.80;62.60
19680;DHT22;9989;48.962;9.182;2022-12-13T14:05:19;6.00;66.70
19680;DHT22;9989;48.962;9.182;2022-12-13T14:24:47;5.00;71.50
19680;DHT22;9989;48.962;9.182;2022-12-13T14:30:32;4.70;72.60
19680;DHT22;9989;48.962;9.182;2022-12-13T14:33:00;4.60;72.90
19680;DHT22;9989;48.962;9.182;2022-12-13T14:35:31;4.40;73.20
19680;DHT22;9989;48.962;9.182;2022-12-13T14:38:02;4.30;73.50
19680;DHT22;9989;48.962;9.182;2022-12-13T14:42:54;4.00;74.60
19680;DHT22;9989;48.962;9.182;2022-12-13T14:48:00;3.70;75.20
19680;DHT22;9989;48.962;9.182;2022-12-13T14:50:32;3.50;75.10
19680;DHT22;9989;48.962;9.182;2022-12-13T14:52:58;3.40;75.60
19680;DHT22;9989;48.962;9.182;2022-12-13T14:57:56;3.00;76.90
19680;DHT22;9989;48.962;9.182;2022-12-13T15:02:55;2.70;77.80
19680;DHT22;9989;48.962;9.182;2022-12-13T15:05:31;2.60;78.20
19680;DHT22;9989;48.962;9.182;2022-12-13T15:07:58;2.50;78.50
19680;DHT22;9989;48.962;9.182;2022-12-13T15:10:40;2.40;78.80
19680;DHT22;9989;48.962;9.182;2022-12-13T15:13:06;2.30;79.00
19680;DHT22;9989;48.962;9.182;2022-12-13T15:15:39;2.20;79.40
19680;DHT22;9989;48.962;9.182;2022-12-13T15:20:37;2.00;80.40
19680;DHT22;9989;48.962;9.182;2022-12-13T15:25:38;1.80;81.40
19680;DHT22;9989;48.962;9.182;2022-12-13T15:28:04;1.70;81.70
19680;DHT22;9989;48.962;9.182;2022-12-13T15:30:32;1.60;82.00
19680;DHT22;9989;48.962;9.182;2022-12-13T15:33:18;1.50;82.50
19680;DHT22;9989;48.962;9.182;2022-12-13T15:35:47;1.50;82.80
19680;DHT22;9989;48.962;9.182;2022-12-13T15:38:16;1.50;83.00
19680;DHT22;9989;48.962;9.182;2022-12-13T15:40:51;1.40;82.90
19680;DHT22;9989;48.962;9.182;2022-12-13T15:43:20;1.30;83.50
19680;DHT22;9989;48.962;9.182;2022-12-13T15:45:47;1.20;84.30
19680;DHT22;9989;48.962;9.182;2022-12-13T15:48:31;1.20;84.60
19680;DHT22;9989;48.962;9.182;2022-12-13T15:51:13;1.10;84.30
19680;DHT22;9989;48.962;9.182;2022-12-13T15:54:03;1.00;84.50
19680;DHT22;9989;48.962;9.182;2022-12-13T15:58:54;1.00;85.40
19680;DHT22;9989;48.962;9.182;2022-12-13T16:01:28;1.00;85.50
19680;DHT22;9989;48.962;9.182;2022-12-13T16:03:54;0.90;85.60
19680;DHT22;9989;48.962;9.182;2022-12-13T16:06:21;0.90;86.30
19680;DHT22;9989;48.962;9.182;2022-12-13T16:08:50;0.90;86.60
19680;DHT22;9989;48.962;9.182;2022-12-13T16:11:46;0.80;86.50
19680;DHT22;9989;48.962;9.182;2022-12-13T16:17:01;0.90;86.80
19680;DHT22;9989;48.962;9.182;2022-12-13T16:19:26;1.00;87.10
19680;DHT22;9989;48.962;9.182;2022-12-13T16:21:52;0.90;88.10
19680;DHT22;9989;48.962;9.182;2022-12-13T16:24:18;1.00;87.20
19680;DHT22;9989;48.962;9.182;2022-12-13T16:26:45;1.00;87.10
19680;DHT22;9989;48.962;9.182;2022-12-13T16:29:13;0.90;87.30
19680;DHT22;9989;48.962;9.182;2022-12-13T16:31:41;0.90;87.50
19680;DHT22;9989;48.962;9.182;2022-12-13T16:34:08;0.90;87.70
19680;DHT22;9989;48.962;9.182;2022-12-13T16:36:35;0.80;88.00
19680;DHT22;9989;48.962;9.182;2022-12-13T16:39:01;0.70;88.20
19680;DHT22;9989;48.962;9.182;2022-12-13T16:41:29;0.70;88.60
19680;DHT22;9989;48.962;9.182;2022-12-13T16:43:57;0.70;88.90
19680;DHT22;9989;48.962;9.182;2022-12-13T16:46:24;0.80;89.00
19680;DHT22;9989;48.962;9.182;2022-12-13T16:48:51;0.70;89.20
19680;DHT22;9989;48.962;9.182;2022-12-13T16:51:17;0.70;89.20
19680;DHT22;9989;48.962;9.182;2022-12-13T16:53:43;0.70;89.60
19680;DHT22;9989;48.962;9.182;2022-12-13T16:56:09;0.70;89.40
19680;DHT22;9989;48.962;9.182;2022-12-13T16:58:36;0.60;89.50
19680;DHT22;9989;48.962;9.182;2022-12-13T17:01:09;0.60;90.30
19680;DHT22;9989;48.962;9.182;2022-12-13T17:03:36;0.50;90.10
19680;DHT22;9989;48.962;9.182;2022-12-13T17:06:02;0.40;90.40
19680;DHT22;9989;48.962;9.182;2022-12-13T17:08:28;0.40;90.50
19680;DHT22;9989;48.962;9.182;2022-12-13T17:10:55;0.40;90.60
19680;DHT22;9989;48.962;9.182;2022-12-13T17:13:20;0.40;90.80
19680;DHT22;9989;48.962;9.182;2022-12-13T17:15:46;0.40;90.80
19680;DHT22;9989;48.962;9.182;2022-12-13T17:18:11;0.40;90.90
19680;DHT22;9989;48.962;9.182;2022-12-13T17:20:37;0.30;91.00
19680;DHT22;9989;48.962;9.182;2022-12-13T17:23:04;0.30;91.30
19680;DHT22;9989;48.962;9.182;2022-12-13T17:25:31;0.30;91.50
19680;DHT22;9989;48.962;9.182;2022-12-13T17:27:56;0.30;91.50
19680;DHT22;9989;48.962;9.182;2022-12-13T17:30:22;0.40;91.60
19680;DHT22;9989;48.962;9.182;2022-12-13T17:32:48;0.40;91.70
19680;DHT22;9989;48.962;9.182;2022-12-13T17:35:14;0.40;91.80
19680;DHT22;9989;48.962;9.182;2022-12-13T17:37:40;0.40;91.70
19680;DHT22;9989;48.962;9.182;2022-12-13T17:40:08;0.40;91.70
19680;DHT22;9989;48.962;9.182;2022-12-13T17:42:34;0.40;91.90
19680;DHT22;9989;48.962;9.182;2022-12-13T17:45:00;0.40;91.70
19680;DHT22;9989;48.962;9.182;2022-12-13T17:47:27;0.30;91.80
19680;DHT22;9989;48.962;9.182;2022-12-13T17:49:52;0.30;92.10
19680;DHT22;9989;48.962;9.182;2022-12-13T17:52:18;0.30;92.20
19680;DHT22;9989;48.962;9.182;2022-12-13T17:54:43;0.20;92.40
19680;DHT22;9989;48.962;9.182;2022-12-13T17:57:09;0.20;92.50
19680;DHT22;9989;48.962;9.182;2022-12-13T17:59:36;0.20;92.70
19680;DHT22;9989;48.962;9.182;2022-12-13T18:02:05;0.20;92.90
19680;DHT22;9989;48.962;9.182;2022-12-13T18:04:31;0.20;93.00
19680;DHT22;9989;48.962;9.182;2022-12-13T18:06:57;0.20;93.10
19680;DHT22;9989;48.962;9.182;2022-12-13T18:09:22;0.10;93.20
19680;DHT22;9989;48.962;9.182;2022-12-13T18:11:48;0.10;93.40
19680;DHT22;9989;48.962;9.182;2022-12-13T18:14:13;0.10;93.70
19680;DHT22;9989;48.962;9.182;2022-12-13T18:16:39;0.10;93.80
19680;DHT22;9989;48.962;9.182;2022-12-13T18:19:07;0.00;94.00
19680;DHT22;9989;48.962;9.182;2022-12-13T18:21:33;0.00;94.10
19680;DHT22;9989;48.962;9.182;2022-12-13T18:23:59;0.00;94.40
19680;DHT22;9989;48.962;9.182;2022-12-13T18:26:25;0.00;94.50
19680;DHT22;9989;48.962;9.182;2022-12-13T18:28:51;0.10;94.80